Time;durP1;ratioP1;P1;durP2;ratioP2;P2;SDS_P1;SDS_P2;PMS_P1;PMS_P2;Temp;Humidity;BMP_temperature;BMP_pressure;BME280_temperature;BME280_humidity;BME280_pressure;Samples;Min_cycle;Max_cycle;Signal;HPM_P1;HPM_P2
2022/05/25 00:06:07;;;;;;;0.40;0.30;;;18.70;99.90;;;;;;20884811;28;20755;-73
2022/05/25 00:16:09;;;;;;;0.50;0.30;;;;;;;;;;20915878;28;20223;-73
2022/05/25 00:26:11;;;;;;;0.40;0.30;;;;;;;;;;20897437;28;20601;-74
2022/05/25 00:36:13;;;;;;;0.20;0.20;;;;;;;;;;20913266;28;20292;-74
2022/05/25 00:46:16;;;;;;;0.40;0.20;;;;;;;;;;20914903;28;20324;-74
2022/05/25 00:56:21;;;;;;;0.40;0.30;;;;;;;;;;20896267;28;20268;-74
2022/05/25 01:06:25;;;;;;;0.40;0.30;;;;;;;;;;20894672;28;20280;-73
2022/05/25 01:16:32;;;;;;;0.57;0.20;;;18.40;99.90;;;;;;20909176;28;20267;-74
2022/05/25 01:27:11;;;;;;;0.20;0.20;;;18.30;99.90;;;;;;20908188;28;20219;-73
2022/05/25 01:37:38;;;;;;;0.23;0.20;;;18.30;99.90;;;;;;20890012;28;20825;-74
2022/05/25 01:47:43;;;;;;;0.83;0.20;;;18.10;99.90;;;;;;20891985;28;20222;-73
2022/05/25 01:57:48;;;;;;;1.13;0.30;;;;;;;;;;20906298;28;20222;-73
2022/05/25 02:07:53;;;;;;;0.53;0.30;;;;;;;;;;20907836;28;20206;-73
2022/05/25 02:18:03;;;;;;;0.83;0.30;;;;;;;;;;20828835;28;20690;-73
2022/05/25 02:28:16;;;;;;;1.80;0.37;;;;;;;;;;20836356;23;20272;-70
2022/05/25 02:38:18;;;;;;;1.20;0.40;;;;;;;;;;20791227;28;20214;-70
2022/05/25 02:48:20;;;;;;;0.30;0.30;;;;;;;;;;20807723;28;20238;-70
2022/05/25 02:58:22;;;;;;;0.30;0.30;;;;;;;;;;20791457;28;20210;-70
2022/05/25 03:08:26;;;;;;;0.20;0.20;;;;;;;;;;20789523;28;20618;-70
2022/05/25 03:18:28;;;;;;;0.20;0.20;;;;;;;;;;20805649;28;20677;-70
2022/05/25 03:28:30;;;;;;;2.43;0.40;;;;;;;;;;20785238;28;20702;-70
2022/05/25 03:38:31;;;;;;;0.10;0.10;;;;;;;;;;20792630;28;20264;-70
2022/05/25 03:48:34;;;;;;;1.17;0.53;;;;;;;;;;20804412;28;20288;-72
2022/05/25 03:58:36;;;;;;;1.07;0.40;;;;;;;;;;20816532;28;20218;-72
2022/05/25 04:08:38;;;;;;;0.87;0.50;;;;;;;;;;20786782;28;20219;-72
2022/05/25 04:18:40;;;;;;;0.63;0.40;;;;;;;;;;20796475;28;20750;-73
2022/05/25 04:28:44;;;;;;;0.40;0.30;;;;;;;;;;20817085;28;20786;-71
2022/05/25 04:38:46;;;;;;;0.37;0.30;;;16.50;99.90;;;;;;20800593;28;20265;-71
2022/05/25 04:48:48;;;;;;;2.53;0.50;;;;;;;;;;20780291;28;20253;-70
2022/05/25 04:58:58;;;;;;;0.93;0.57;;;;;;;;;;20785277;28;20243;-68
2022/05/25 05:09:06;;;;;;;2.17;0.70;;;;;;;;;;20791958;28;20214;-69
2022/05/25 05:19:08;;;;;;;0.50;0.40;;;;;;;;;;20813558;28;20219;-71
2022/05/25 05:29:34;;;;;;;0.47;0.37;;;;;;;;;;20799824;28;20771;-70
2022/05/25 05:39:38;;;;;;;0.90;0.50;;;;;;;;;;20807767;28;20637;-71
2022/05/25 05:49:41;;;;;;;0.60;0.40;;;17.30;99.90;;;;;;20784154;28;20218;-70
2022/05/25 05:59:43;;;;;;;0.77;0.47;;;;;;;;;;20768148;28;20265;-72
2022/05/25 06:09:45;;;;;;;0.40;0.40;;;;;;;;;;20787827;28;20689;-72
2022/05/25 06:19:46;;;;;;;0.70;0.30;;;;;;;;;;20792077;28;20222;-72
2022/05/25 06:29:49;;;;;;;1.97;0.33;;;18.10;99.90;;;;;;20792055;28;20218;-71
2022/05/25 06:39:53;;;;;;;0.63;0.30;;;;;;;;;;20791382;28;20230;-71
2022/05/25 06:49:55;;;;;;;0.77;0.40;;;;;;;;;;20790711;28;20462;-71
2022/05/25 06:59:57;;;;;;;0.80;0.30;;;;;;;;;;20789891;28;20214;-71
2022/05/25 07:10:00;;;;;;;0.97;0.37;;;;;;;;;;20805404;28;20214;-71
2022/05/25 07:20:02;;;;;;;0.40;0.30;;;;;;;;;;20788812;28;20226;-71
2022/05/25 07:30:04;;;;;;;0.40;0.30;;;;;;;;;;20804745;28;20309;-71
2022/05/25 07:40:25;;;;;;;0.30;0.30;;;19.80;98.10;;;;;;20804334;28;20234;-71
2022/05/25 07:50:28;;;;;;;0.30;0.23;;;19.50;99.90;;;;;;20788241;28;20265;-71
2022/05/25 08:00:30;;;;;;;0.87;0.30;;;;;;;;;;20788119;28;20219;-71
2022/05/25 08:10:32;;;;;;;0.30;0.20;;;20.40;99.90;;;;;;20787491;28;20561;-71
2022/05/25 08:20:34;;;;;;;0.40;0.30;;;;;;;;;;20787431;28;20271;-71
2022/05/25 08:30:38;;;;;;;0.20;0.20;;;;;;;;;;20798396;28;20251;-70
2022/05/25 08:40:40;;;;;;;0.83;0.40;;;;;;;;;;20817293;28;20586;-70
2022/05/25 08:50:42;;;;;;;1.20;0.60;;;;;;;;;;20800272;28;20267;-70
2022/05/25 09:00:46;;;;;;;0.20;0.20;;;;;;;;;;20799486;28;20216;-71
2022/05/25 09:11:03;;;;;;;1.03;0.40;;;;;;;;;;20798708;28;20213;-71
2022/05/25 09:21:06;;;;;;;0.30;0.20;;;;;;;;;;20814001;28;20630;-70
2022/05/25 09:31:11;;;;;;;1.47;0.40;;;22.10;93.40;;;;;;20797573;28;20286;-70
2022/05/25 09:41:19;;;;;;;0.73;0.40;;;21.80;91.60;;;;;;20780221;28;20217;-70
2022/05/25 09:51:45;;;;;;;1.80;0.83;;;21.60;88.90;;;;;;20811950;28;20599;-70
2022/05/25 10:01:49;;;;;;;1.10;0.43;;;;;;;;;;20780422;28;20228;-70
2022/05/25 10:11:52;;;;;;;0.83;0.30;;;22.40;92.80;;;;;;20794285;28;20218;-71
2022/05/25 10:21:56;;;;;;;0.40;0.37;;;22.80;83.20;;;;;;20793154;28;20218;-71
2022/05/25 10:42:22;;;;;;;0.20;0.20;;;;;;;;;;20794448;28;20221;-71
2022/05/25 10:52:45;;;;;;;0.83;0.20;;;23.40;86.80;;;;;;20790455;28;20206;-72
2022/05/25 11:03:14;;;;;;;0.43;0.38;;;;;;;;;;20774371;28;20226;-71
2022/05/25 11:13:40;;;;;;;0.20;0.20;;;23.20;87.50;;;;;;20787467;28;20213;-71
2022/05/25 11:23:53;;;;;;;0.20;0.20;;;;;;;;;;20805790;28;20270;-72
2022/05/25 11:34:15;;;;;;;0.20;0.20;;;;;;;;;;20804938;28;20266;-72
2022/05/25 11:44:25;;;;;;;0.52;0.20;;;24.10;73.10;;;;;;20788592;28;20771;-72
2022/05/25 11:54:38;;;;;;;0.20;0.20;;;;;;;;;;20804859;28;20257;-72
2022/05/25 12:04:55;;;;;;;0.30;0.30;;;24.00;71.50;;;;;;20798960;28;20282;-72
2022/05/25 12:14:58;;;;;;;0.52;0.20;;;;;;;;;;20819477;28;20241;-71
2022/05/25 12:25:13;;;;;;;1.55;0.30;;;24.50;83.00;;;;;;20818992;28;20224;-73
2022/05/25 12:35:16;;;;;;;0.30;0.20;;;22.80;82.60;;;;;;20817529;28;20217;-72
2022/05/25 12:55:58;;;;;;;0.10;0.10;;;;;;;;;;20816635;28;20263;-72
2022/05/25 13:06:00;;;;;;;0.98;0.40;;;;;;;;;;20799769;28;20702;-72
2022/05/25 13:16:03;;;;;;;0.20;0.20;;;;;;;;;;20829669;28;20209;-73
2022/05/25 13:26:06;;;;;;;0.40;0.25;;;;;;;;;;20827816;28;20265;-72
2022/05/25 13:36:21;;;;;;;0.20;0.20;;;24.80;76.80;;;;;;20812864;28;20212;-72
2022/05/25 13:46:34;;;;;;;0.25;0.22;;;25.10;80.50;;;;;;20796056;28;20756;-73
2022/05/25 13:56:36;;;;;;;1.40;0.30;;;;;;;;;;20811372;28;20265;-71
2022/05/25 14:06:44;;;;;;;0.43;0.32;;;25.00;78.70;;;;;;20795176;28;20748;-72
2022/05/25 14:16:55;;;;;;;0.20;0.20;;;;;;;;;;20779372;28;20202;-72
2022/05/25 14:27:02;;;;;;;0.30;0.25;;;;;;;;;;20788373;28;20260;-71
2022/05/25 14:37:04;;;;;;;0.75;0.32;;;;;;;;;;20808256;28;20589;-70
2022/05/25 14:47:18;;;;;;;0.85;0.25;;;;;;;;;;20791575;28;20226;-71
2022/05/25 14:57:20;;;;;;;0.65;0.25;;;;;;;;;;20806909;28;20275;-71
2022/05/25 15:07:23;;;;;;;0.75;0.30;;;;;;;;;;20806622;28;20252;-70
2022/05/25 15:27:59;;;;;;;1.30;0.30;;;;;;;;;;20772555;28;20862;-70
2022/05/25 15:38:04;;;;;;;0.30;0.28;;;;;;;;;;20800328;28;20282;-71
2022/05/25 15:48:08;;;;;;;0.63;0.30;;;;;;;;;;20810087;28;20283;-70
2022/05/25 15:58:11;;;;;;;1.60;0.30;;;;;;;;;;20827032;28;20298;-70
2022/05/25 16:18:35;;;;;;;0.70;0.30;;;;;;;;;;20865776;28;20223;-71
2022/05/25 16:28:38;;;;;;;0.20;0.20;;;;;;;;;;20853674;28;20288;-72
2022/05/25 16:38:40;;;;;;;0.20;0.20;;;;;;;;;;20851009;28;20222;-70
2022/05/25 16:48:42;;;;;;;0.35;0.15;;;;;;;;;;20883497;28;20625;-71
2022/05/25 16:58:45;;;;;;;0.20;0.20;;;;;;;;;;20884154;28;20214;-70
2022/05/25 17:08:47;;;;;;;0.20;0.20;;;;;;;;;;20771344;28;20314;-71
2022/05/25 17:29:16;;;;;;;0.40;0.20;;;23.70;72.20;;;;;;20796352;28;20221;-70
2022/05/25 17:49:40;;;;;;;0.20;0.20;;;23.50;77.70;;;;;;20806425;28;20223;-70
2022/05/25 17:59:47;;;;;;;0.10;0.10;;;;;;;;;;20745251;28;20681;-70
2022/05/25 18:10:02;;;;;;;0.55;0.20;;;23.30;85.60;;;;;;20782410;28;20811;-70
2022/05/25 18:20:08;;;;;;;0.25;0.20;;;23.20;82.60;;;;;;20785885;28;20263;-70
2022/05/25 18:30:15;;;;;;;0.20;0.20;;;;;;;;;;20795090;28;20721;-70
2022/05/25 18:40:17;;;;;;;0.73;0.20;;;;;;;;;;20793263;28;20236;-70
2022/05/25 18:50:20;;;;;;;0.20;0.20;;;;;;;;;;20756606;28;20220;-70
2022/05/25 19:00:23;;;;;;;1.08;0.45;;;22.90;86.30;;;;;;20769075;28;20701;-71
2022/05/25 19:10:27;;;;;;;0.43;0.30;;;;;;;;;;20783315;28;20282;-70
2022/05/25 19:20:29;;;;;;;0.98;0.32;;;;;;;;;;20769108;28;20236;-70
2022/05/25 19:30:32;;;;;;;0.60;0.30;;;;;;;;;;20766758;28;20235;-70
2022/05/25 19:40:35;;;;;;;2.65;0.20;;;;;;;;;;20774211;28;20672;-70
2022/05/25 19:50:49;;;;;;;0.40;0.30;;;;;;;;;;20769686;28;20210;-70
2022/05/25 20:00:51;;;;;;;1.10;0.43;;;;;;;;;;20802756;28;20218;-70
2022/05/25 20:10:53;;;;;;;0.50;0.30;;;23.20;90.60;;;;;;20789307;28;20223;-71
2022/05/25 20:20:58;;;;;;;0.30;0.20;;;;;;;;;;20744763;28;20336;-70
2022/05/25 20:31:00;;;;;;;0.20;0.20;;;;;;;;;;20724638;28;20254;-70
2022/05/25 20:41:02;;;;;;;0.20;0.20;;;23.00;89.90;;;;;;20801500;28;20222;-69
2022/05/25 20:51:04;;;;;;;0.77;0.45;;;;;;;;;;20724964;28;20632;-69
2022/05/25 21:01:07;;;;;;;0.95;0.20;;;;;;;;;;20801113;28;20773;-69
2022/05/25 21:11:09;;;;;;;0.20;0.20;;;;;;;;;;20779724;28;20277;-69
2022/05/25 21:21:11;;;;;;;0.50;0.20;;;;;;;;;;20875540;28;20233;-69
2022/05/25 21:41:34;;;;;;;0.40;0.30;;;;;;;;;;20879029;28;20279;-69
2022/05/25 21:51:38;;;;;;;0.30;0.20;;;;;;;;;;20892082;28;20290;-69
2022/05/25 22:01:41;;;;;;;0.30;0.20;;;;;;;;;;20875432;28;20605;-69
2022/05/25 22:11:43;;;;;;;0.30;0.20;;;;;;;;;;20891947;28;20265;-69
2022/05/25 22:21:45;;;;;;;0.43;0.27;;;;;;;;;;20874271;28;20697;-70
2022/05/25 22:31:47;;;;;;;1.37;0.20;;;;;;;;;;20838170;28;20653;-69
2022/05/25 22:41:49;;;;;;;0.30;0.30;;;;;;;;;;20790490;28;20256;-69
2022/05/25 22:51:51;;;;;;;0.40;0.20;;;;;;;;;;20806358;28;20274;-69
2022/05/25 23:01:53;;;;;;;0.20;0.20;;;;;;;;;;20797135;28;20216;-69
2022/05/25 23:11:55;;;;;;;0.50;0.20;;;20.50;92.70;;;;;;20788698;28;20682;-69
2022/05/25 23:21:57;;;;;;;1.50;0.20;;;;;;;;;;20772583;28;20226;-69
2022/05/25 23:32:02;;;;;;;0.90;0.33;;;;;;;;;;20782518;28;20233;-69
2022/05/25 23:52:24;;;;;;;0.20;0.20;;;;;;;;;;20790892;28;20761;-69
